Time;durP1;ratioP1;P1;durP2;ratioP2;P2;SDS_P1;SDS_P2;PMS_P1;PMS_P2;Temp;Humidity;BMP_temperature;BMP_pressure;BME280_temperature;BME280_humidity;BME280_pressure;Samples;Min_cycle;Max_cycle;Signal;HPM_P1;HPM_P2
2021/03/02 00:00:32;;;;;;;40.63;19.85;;;0.80;95.10;;;;;;4993823;28;20161;-78
2021/03/02 00:02:57;;;;;;;39.63;18.27;;;0.80;95.00;;;;;;5002313;28;20433;-79
2021/03/02 00:05:23;;;;;;;32.60;18.05;;;0.80;95.20;;;;;;5006290;28;20025;-79
2021/03/02 00:07:48;;;;;;;37.67;19.63;;;0.80;95.20;;;;;;5008403;28;20029;-79
2021/03/02 00:10:14;;;;;;;40.17;18.95;;;0.90;95.30;;;;;;5007197;28;20485;-79
2021/03/02 00:12:40;;;;;;;35.30;18.85;;;0.80;94.90;;;;;;4994578;28;20243;-79
2021/03/02 00:15:07;;;;;;;35.25;19.90;;;0.80;95.00;;;;;;4981678;28;20072;-79
2021/03/02 00:17:39;;;;;;;38.53;18.45;;;0.90;95.30;;;;;;5007644;28;20037;-79
2021/03/02 00:20:06;;;;;;;37.58;18.25;;;1.00;95.00;;;;;;4983078;28;20556;-79
2021/03/02 00:22:34;;;;;;;37.88;18.35;;;1.10;94.40;;;;;;5021237;28;20088;-79
2021/03/02 00:25:03;;;;;;;31.52;15.45;;;1.00;94.30;;;;;;4995737;28;20029;-78
2021/03/02 00:27:29;;;;;;;35.30;18.00;;;0.80;94.50;;;;;;4986494;28;20528;-79
2021/03/02 00:29:54;;;;;;;33.63;18.15;;;0.60;94.50;;;;;;4984042;28;20108;-79
2021/03/02 00:32:20;;;;;;;38.97;18.15;;;0.60;94.90;;;;;;4988421;28;20029;-78
2021/03/02 00:34:47;;;;;;;39.22;17.70;;;0.60;95.40;;;;;;5006442;28;20409;-79
2021/03/02 00:37:13;;;;;;;34.83;18.23;;;0.80;95.30;;;;;;4987803;28;20041;-79
2021/03/02 00:39:38;;;;;;;39.95;18.73;;;0.80;95.10;;;;;;5024778;28;20034;-79
2021/03/02 00:42:04;;;;;;;36.55;17.30;;;0.90;95.00;;;;;;4985083;28;20512;-79
2021/03/02 00:44:29;;;;;;;31.65;15.95;;;1.00;94.60;;;;;;5009542;28;20168;-78
2021/03/02 00:46:55;;;;;;;32.60;16.20;;;0.90;94.00;;;;;;4987015;28;20032;-79
2021/03/02 00:49:20;;;;;;;32.40;16.48;;;0.90;94.10;;;;;;5008636;28;20037;-80
2021/03/02 00:51:46;;;;;;;26.60;16.02;;;0.70;94.30;;;;;;5010087;28;20110;-80
2021/03/02 00:54:11;;;;;;;32.08;17.67;;;0.50;94.60;;;;;;4971665;28;20033;-79
2021/03/02 00:56:37;;;;;;;32.60;16.48;;;0.40;95.20;;;;;;5008895;28;20125;-79
2021/03/02 00:59:03;;;;;;;33.20;17.77;;;0.40;95.20;;;;;;4987548;28;20025;-79
2021/03/02 01:01:28;;;;;;;35.60;18.63;;;0.40;95.20;;;;;;5008545;28;20381;-79
2021/03/02 01:03:54;;;;;;;36.97;19.42;;;0.40;95.10;;;;;;4998038;28;20035;-79
2021/03/02 01:06:19;;;;;;;30.25;16.38;;;0.50;95.30;;;;;;4970479;28;20038;-79
2021/03/02 01:08:45;;;;;;;40.05;18.17;;;0.50;95.70;;;;;;5006960;28;20494;-79
2021/03/02 01:11:10;;;;;;;39.10;17.20;;;0.60;95.60;;;;;;4993568;28;20041;-79
2021/03/02 01:13:36;;;;;;;33.92;18.50;;;0.60;95.60;;;;;;4991759;28;20034;-79
2021/03/02 01:16:02;;;;;;;37.05;17.42;;;0.70;95.00;;;;;;4981474;28;20389;-80
2021/03/02 01:18:27;;;;;;;33.60;17.25;;;0.70;94.60;;;;;;4982902;28;20095;-79
2021/03/02 01:20:53;;;;;;;32.10;16.45;;;0.70;94.80;;;;;;4996233;28;20385;-79
2021/03/02 01:23:19;;;;;;;29.52;15.95;;;0.60;94.90;;;;;;4965712;28;20038;-79
2021/03/02 01:25:44;;;;;;;40.35;17.13;;;0.50;95.40;;;;;;4997082;28;20108;-79
2021/03/02 01:28:10;;;;;;;30.92;15.15;;;0.50;95.20;;;;;;4991483;28;20109;-79
2021/03/02 01:30:35;;;;;;;30.40;16.17;;;0.50;95.20;;;;;;4992461;28;20081;-79
2021/03/02 01:33:01;;;;;;;25.83;14.73;;;0.20;94.70;;;;;;4982480;28;20568;-80
2021/03/02 01:35:26;;;;;;;26.60;13.75;;;0.20;95.10;;;;;;5008493;28;20569;-79
2021/03/02 01:37:52;;;;;;;34.03;15.48;;;0.10;95.10;;;;;;5017962;28;20497;-80
2021/03/02 01:40:18;;;;;;;30.02;13.32;;;0.20;95.00;;;;;;4973478;28;20030;-80
2021/03/02 01:42:43;;;;;;;32.83;14.63;;;0.20;94.80;;;;;;4986523;28;20073;-79
2021/03/02 01:45:11;;;;;;;63.60;14.65;;;0.20;94.60;;;;;;4987289;28;20477;-79
2021/03/02 01:47:36;;;;;;;41.20;15.48;;;0.20;94.50;;;;;;5009036;28;20046;-79
2021/03/02 01:50:04;;;;;;;37.90;13.35;;;0.30;94.40;;;;;;4981169;28;20025;-80
2021/03/02 01:52:29;;;;;;;22.48;11.57;;;0.40;94.00;;;;;;4987936;28;20045;-79
2021/03/02 01:54:55;;;;;;;33.70;14.32;;;0.50;93.30;;;;;;4982546;28;20056;-79
2021/03/02 01:57:20;;;;;;;26.15;14.25;;;0.40;93.60;;;;;;4987852;28;20101;-79
2021/03/02 01:59:46;;;;;;;25.58;13.30;;;0.40;93.90;;;;;;5016913;28;20049;-79
2021/03/02 02:02:13;;;;;;;52.03;14.23;;;0.30;93.50;;;;;;4994781;28;20034;-79
2021/03/02 02:04:41;;;;;;;65.15;13.68;;;0.40;93.00;;;;;;4990539;28;20509;-79
2021/03/02 02:07:11;;;;;;;24.98;13.05;;;0.30;93.40;;;;;;4988602;28;20132;-79
2021/03/02 02:10:01;;;;;;;24.58;13.60;;;0.10;93.80;;;;;;5022108;28;20099;-79
2021/03/02 02:12:30;;;;;;;26.35;14.23;;;0.00;93.80;;;;;;4974538;28;20433;-79
2021/03/02 02:14:59;;;;;;;26.85;14.95;;;0.00;94.00;;;;;;5020872;28;20541;-79
2021/03/02 02:17:50;;;;;;;28.45;13.95;;;-0.10;94.20;;;;;;5001853;28;20370;-80
2021/03/02 02:20:34;;;;;;;31.95;16.10;;;-0.10;94.30;;;;;;4999979;28;20136;-79
2021/03/02 02:23:08;;;;;;;26.88;15.23;;;-0.10;94.40;;;;;;5024162;28;20029;-79
2021/03/02 02:25:40;;;;;;;25.25;14.38;;;-0.10;94.40;;;;;;4990291;28;20531;-79
2021/03/02 02:28:06;;;;;;;31.58;15.65;;;-0.10;94.60;;;;;;4995287;28;20152;-80
2021/03/02 02:30:32;;;;;;;28.42;15.23;;;-0.20;94.80;;;;;;4995304;28;20066;-79
2021/03/02 02:32:57;;;;;;;30.00;16.02;;;-0.20;95.30;;;;;;4986310;28;20037;-79
2021/03/02 02:35:23;;;;;;;29.38;13.95;;;-0.30;95.40;;;;;;5001266;28;20045;-79
2021/03/02 02:37:49;;;;;;;29.27;16.17;;;-0.20;95.70;;;;;;5011295;28;20181;-79
2021/03/02 02:40:15;;;;;;;31.13;15.30;;;-0.30;95.30;;;;;;4987767;28;20954;-79
2021/03/02 02:42:42;;;;;;;30.67;17.15;;;-0.20;95.90;;;;;;4992843;28;20030;-80
2021/03/02 02:45:08;;;;;;;34.58;16.33;;;-0.10;95.80;;;;;;4983122;28;20029;-80
2021/03/02 02:47:34;;;;;;;28.38;15.88;;;-0.10;95.50;;;;;;5015429;28;20089;-79
2021/03/02 02:49:59;;;;;;;28.60;15.38;;;-0.10;95.30;;;;;;4966812;28;20033;-80
2021/03/02 02:52:25;;;;;;;32.15;16.73;;;-0.10;95.40;;;;;;4995266;28;20034;-80
2021/03/02 02:54:53;;;;;;;32.00;16.05;;;-0.10;95.20;;;;;;5010627;28;20105;-79
2021/03/02 02:57:18;;;;;;;28.95;14.65;;;-0.10;95.00;;;;;;5011697;28;20098;-80
2021/03/02 02:59:45;;;;;;;26.45;13.65;;;0.00;94.10;;;;;;5012784;28;20047;-79
2021/03/02 03:02:16;;;;;;;30.98;15.63;;;0.00;93.50;;;;;;4975000;28;20041;-80
2021/03/02 03:04:44;;;;;;;26.40;14.57;;;-0.10;93.90;;;;;;5008291;28;20029;-79
2021/03/02 03:07:30;;;;;;;30.60;15.05;;;-0.20;94.20;;;;;;4992076;28;20397;-79
2021/03/02 03:09:56;;;;;;;29.88;14.00;;;-0.40;94.50;;;;;;5008790;28;20041;-80
2021/03/02 03:12:21;;;;;;;26.83;15.25;;;-0.40;94.90;;;;;;5004386;28;20041;-80
2021/03/02 03:14:52;;;;;;;28.40;14.57;;;-0.30;94.50;;;;;;5009820;28;20033;-80
2021/03/02 03:17:18;;;;;;;27.25;14.27;;;-0.40;94.60;;;;;;4990208;28;20026;-79
2021/03/02 03:19:45;;;;;;;24.15;13.52;;;-0.40;94.80;;;;;;4996074;28;20041;-78
2021/03/02 03:22:10;;;;;;;30.88;15.65;;;-0.30;94.70;;;;;;4975316;28;20040;-79
2021/03/02 03:24:36;;;;;;;27.35;15.20;;;-0.20;94.50;;;;;;5007626;28;20501;-79
2021/03/02 03:27:01;;;;;;;26.77;14.50;;;-0.20;94.20;;;;;;4983844;28;20036;-79
2021/03/02 03:29:27;;;;;;;26.42;14.10;;;-0.40;94.60;;;;;;4994554;28;20124;-80
2021/03/02 03:31:52;;;;;;;26.45;14.73;;;-0.40;94.60;;;;;;5008275;28;20064;-79
2021/03/02 03:34:18;;;;;;;35.40;15.13;;;-0.30;94.40;;;;;;4983684;28;20116;-78
2021/03/02 03:36:43;;;;;;;26.40;14.30;;;-0.30;94.40;;;;;;4993155;28;20030;-79
2021/03/02 03:39:09;;;;;;;27.73;14.75;;;-0.30;94.20;;;;;;4972186;28;20037;-79
2021/03/02 03:41:35;;;;;;;27.15;14.13;;;-0.30;94.00;;;;;;5022951;28;20053;-80
2021/03/02 03:44:01;;;;;;;30.02;15.25;;;-0.30;94.10;;;;;;5007595;28;20121;-80
2021/03/02 03:46:27;;;;;;;27.83;14.82;;;-0.30;94.10;;;;;;4981741;28;20045;-80
2021/03/02 03:48:53;;;;;;;21.85;12.00;;;-0.40;94.10;;;;;;5004457;28;20050;-79
2021/03/02 03:51:18;;;;;;;21.90;11.95;;;-0.30;94.20;;;;;;4985132;28;20037;-79
2021/03/02 03:53:44;;;;;;;27.67;13.88;;;-0.30;93.50;;;;;;5000326;28;20033;-79
2021/03/02 03:56:09;;;;;;;23.85;14.43;;;-0.30;93.60;;;;;;4985266;28;20500;-80
2021/03/02 03:58:35;;;;;;;23.92;12.60;;;-0.40;93.70;;;;;;5008264;28;20393;-80
2021/03/02 04:01:02;;;;;;;27.73;13.85;;;-0.40;93.80;;;;;;4993583;28;20014;-80
2021/03/02 04:03:28;;;;;;;25.27;14.18;;;-0.50;93.50;;;;;;5007519;28;20034;-80
2021/03/02 04:05:54;;;;;;;28.58;14.32;;;-0.50;93.60;;;;;;4983415;28;20037;-79
2021/03/02 04:08:19;;;;;;;26.08;14.15;;;-0.50;93.70;;;;;;4981815;28;20034;-80
2021/03/02 04:10:45;;;;;;;29.48;14.98;;;-0.60;94.10;;;;;;5012197;28;20036;-79
2021/03/02 04:13:15;;;;;;;31.75;15.15;;;-0.70;94.30;;;;;;4988205;28;20033;-80
2021/03/02 04:15:41;;;;;;;30.92;14.95;;;-0.70;94.40;;;;;;5008903;28;20034;-80
2021/03/02 04:18:13;;;;;;;27.33;14.93;;;-0.80;94.70;;;;;;4991472;28;20041;-80
2021/03/02 04:20:39;;;;;;;26.13;14.55;;;-0.80;94.70;;;;;;4994089;28;20041;-80
2021/03/02 04:23:05;;;;;;;26.38;14.57;;;-0.80;94.90;;;;;;4993988;28;20040;-79
2021/03/02 04:25:31;;;;;;;26.45;13.68;;;-0.70;94.70;;;;;;5021252;28;20030;-80
2021/03/02 04:27:58;;;;;;;26.35;14.05;;;-0.70;94.70;;;;;;4993275;28;20029;-80
2021/03/02 04:30:23;;;;;;;25.42;13.98;;;-0.70;94.70;;;;;;5002746;28;20037;-80
2021/03/02 04:32:49;;;;;;;22.58;13.30;;;-0.80;94.80;;;;;;5002741;28;20041;-80
2021/03/02 04:35:14;;;;;;;27.17;14.25;;;-1.10;94.80;;;;;;4976111;28;20329;-79
2021/03/02 04:37:40;;;;;;;28.83;14.15;;;-1.20;94.70;;;;;;5022777;28;20034;-79
2021/03/02 04:40:06;;;;;;;26.42;13.85;;;-1.10;95.00;;;;;;4997197;28;20055;-80
2021/03/02 04:42:32;;;;;;;26.50;13.15;;;-1.10;95.40;;;;;;5002268;28;20038;-80
2021/03/02 04:44:57;;;;;;;27.00;14.00;;;-1.10;94.80;;;;;;4991306;28;20493;-80
2021/03/02 04:47:23;;;;;;;26.02;13.65;;;-1.20;94.90;;;;;;4998147;28;20378;-80
2021/03/02 04:49:49;;;;;;;29.70;14.50;;;-1.10;95.40;;;;;;5005005;28;20033;-79
2021/03/02 04:52:16;;;;;;;29.85;13.32;;;-0.90;95.70;;;;;;4982758;28;20092;-79
2021/03/02 04:54:41;;;;;;;27.95;14.35;;;-0.80;95.40;;;;;;5008259;28;20486;-80
2021/03/02 04:57:07;;;;;;;27.63;13.88;;;-0.80;94.80;;;;;;4987507;28;20048;-79
2021/03/02 04:59:32;;;;;;;25.00;14.15;;;-0.70;94.40;;;;;;5021121;28;20056;-81
2021/03/02 05:01:58;;;;;;;25.45;13.70;;;-0.70;94.30;;;;;;4977649;28;20037;-80
2021/03/02 05:04:23;;;;;;;22.02;11.02;;;-0.70;94.60;;;;;;4986649;28;20030;-81
2021/03/02 05:06:49;;;;;;;26.30;14.00;;;-0.70;94.20;;;;;;5012019;28;20400;-79
2021/03/02 05:09:14;;;;;;;27.23;14.15;;;-0.70;94.20;;;;;;4973914;28;20042;-78
2021/03/02 05:11:40;;;;;;;27.92;14.18;;;-0.70;94.30;;;;;;5007006;28;20041;-81
2021/03/02 05:14:05;;;;;;;26.65;12.85;;;-1.00;93.50;;;;;;4978458;28;20124;-79
2021/03/02 05:16:31;;;;;;;25.80;13.73;;;-1.20;94.60;;;;;;4989993;28;21189;-79
2021/03/02 05:18:56;;;;;;;23.83;12.52;;;-1.10;95.10;;;;;;4978284;28;20033;-79
2021/03/02 05:21:22;;;;;;;24.33;12.35;;;-1.10;94.90;;;;;;4988554;28;20053;-79
2021/03/02 05:23:47;;;;;;;25.13;13.50;;;-1.10;94.80;;;;;;5012049;28;20466;-79
2021/03/02 05:26:13;;;;;;;25.15;12.10;;;-0.90;94.80;;;;;;4992882;28;20026;-79
2021/03/02 05:28:38;;;;;;;27.13;12.32;;;-0.90;94.30;;;;;;5023360;28;20129;-79
2021/03/02 05:31:04;;;;;;;24.48;13.02;;;-1.10;94.70;;;;;;4991528;28;20032;-79
2021/03/02 05:33:30;;;;;;;25.00;13.82;;;-1.20;94.30;;;;;;4974296;28;20116;-78
2021/03/02 05:35:55;;;;;;;23.50;13.27;;;-1.30;94.80;;;;;;4984325;28;20420;-79
2021/03/02 05:38:21;;;;;;;27.83;14.48;;;-1.30;95.00;;;;;;4989452;28;20470;-78
2021/03/02 05:40:46;;;;;;;32.65;14.52;;;-1.30;94.90;;;;;;4991974;28;20041;-79
2021/03/02 05:43:12;;;;;;;27.75;13.98;;;-1.30;95.30;;;;;;4999369;28;20036;-80
2021/03/02 05:45:37;;;;;;;26.50;13.27;;;-1.20;95.60;;;;;;4997096;28;20037;-80
2021/03/02 05:48:07;;;;;;;25.05;12.88;;;-1.20;95.20;;;;;;5014065;28;22116;-81
2021/03/02 05:50:32;;;;;;;38.15;15.43;;;-1.20;95.00;;;;;;4992184;28;20389;-80
2021/03/02 05:53:03;;;;;;;25.00;14.27;;;-1.20;95.10;;;;;;4984245;28;20041;-79
2021/03/02 05:55:29;;;;;;;23.08;13.13;;;-1.20;95.00;;;;;;5006133;28;20042;-77
2021/03/02 05:57:56;;;;;;;25.95;12.50;;;-1.30;95.00;;;;;;5011459;28;20095;-80
2021/03/02 06:00:22;;;;;;;26.65;13.50;;;-1.20;95.50;;;;;;4990771;28;20026;-79
2021/03/02 06:02:47;;;;;;;27.88;14.48;;;-1.10;95.10;;;;;;5004717;28;20060;-79
2021/03/02 06:05:13;;;;;;;32.45;14.25;;;-1.10;95.20;;;;;;5011424;28;20104;-79
2021/03/02 06:07:39;;;;;;;29.98;13.95;;;-1.00;95.50;;;;;;5008475;28;20030;-77
2021/03/02 06:10:05;;;;;;;34.17;15.27;;;-1.00;95.20;;;;;;4983315;28;20385;-79
2021/03/02 06:12:30;;;;;;;32.15;15.27;;;-1.00;95.40;;;;;;5009583;28;20045;-78
2021/03/02 06:15:03;;;;;;;27.80;14.82;;;-1.00;95.30;;;;;;4982656;28;20036;-79
2021/03/02 06:17:29;;;;;;;32.65;14.52;;;-0.90;95.50;;;;;;5005210;28;20505;-77
2021/03/02 06:19:54;;;;;;;26.88;14.07;;;-0.80;95.60;;;;;;5022541;28;20051;-77
2021/03/02 06:22:30;;;;;;;35.85;16.27;;;-0.80;95.70;;;;;;4983491;28;20152;-77
2021/03/02 06:24:56;;;;;;;36.45;15.95;;;-0.60;96.30;;;;;;5001614;28;20140;-77
2021/03/02 06:27:21;;;;;;;36.45;15.80;;;-0.50;95.90;;;;;;5005149;28;20204;-77
2021/03/02 06:30:12;;;;;;;37.28;16.73;;;-0.40;95.80;;;;;;5026830;28;20033;-77
2021/03/02 06:32:42;;;;;;;33.53;16.00;;;-0.60;95.00;;;;;;5028937;28;20071;-77
2021/03/02 06:35:08;;;;;;;30.88;14.77;;;-0.60;95.70;;;;;;5011674;28;20022;-78
2021/03/02 06:37:40;;;;;;;31.65;15.60;;;-0.60;96.00;;;;;;5006146;28;20112;-77
2021/03/02 06:40:07;;;;;;;32.30;15.88;;;-0.40;96.20;;;;;;5010504;28;20058;-77
2021/03/02 06:42:36;;;;;;;37.38;16.50;;;-0.40;96.00;;;;;;4977329;28;20033;-77
2021/03/02 06:45:10;;;;;;;30.35;16.02;;;-0.40;95.70;;;;;;4996235;28;20124;-78
2021/03/02 06:47:39;;;;;;;30.48;14.90;;;-0.30;95.80;;;;;;4970727;28;20572;-78
2021/03/02 06:50:12;;;;;;;29.73;14.98;;;-0.40;95.90;;;;;;4975829;28;20501;-77
2021/03/02 06:52:38;;;;;;;26.52;13.00;;;-0.30;95.60;;;;;;5018285;28;20048;-77
2021/03/02 06:55:23;;;;;;;32.22;15.68;;;-0.30;95.20;;;;;;4992805;28;20066;-78
2021/03/02 06:57:49;;;;;;;30.33;15.02;;;-0.20;95.20;;;;;;4971984;28;20457;-78
2021/03/02 07:00:16;;;;;;;29.83;15.75;;;-0.30;95.20;;;;;;4978658;28;20552;-78
2021/03/02 07:02:42;;;;;;;32.15;14.88;;;-0.40;95.40;;;;;;5031492;28;20046;-77
2021/03/02 07:05:17;;;;;;;31.95;13.75;;;-0.30;95.60;;;;;;4996164;28;20030;-77
2021/03/02 07:07:44;;;;;;;32.58;14.18;;;-0.30;95.60;;;;;;5017673;28;20042;-77
2021/03/02 07:10:10;;;;;;;27.35;14.65;;;-0.30;95.60;;;;;;4996915;28;20038;-77
2021/03/02 07:12:37;;;;;;;33.45;16.00;;;-0.20;95.90;;;;;;4994575;28;20037;-78
2021/03/02 07:15:10;;;;;;;35.92;16.02;;;-0.20;96.10;;;;;;4993319;28;20029;-78
2021/03/02 07:17:40;;;;;;;32.40;15.65;;;-0.10;96.10;;;;;;5003438;28;20454;-77
2021/03/02 07:20:08;;;;;;;35.65;15.60;;;0.00;96.50;;;;;;4995751;28;20037;-77
2021/03/02 07:22:35;;;;;;;33.58;16.95;;;0.20;96.40;;;;;;4993286;28;20038;-78
2021/03/02 07:25:01;;;;;;;29.45;15.02;;;0.30;96.40;;;;;;4989255;28;20034;-78
2021/03/02 07:27:28;;;;;;;39.05;15.82;;;0.20;96.40;;;;;;4994115;28;20044;-78
2021/03/02 07:29:54;;;;;;;36.50;16.70;;;0.20;96.10;;;;;;4979716;28;20111;-78
2021/03/02 07:32:20;;;;;;;34.45;15.90;;;0.10;96.10;;;;;;5005469;28;20058;-78
2021/03/02 07:34:46;;;;;;;30.42;15.13;;;0.20;96.30;;;;;;5003713;28;20021;-77
2021/03/02 07:37:12;;;;;;;39.92;17.23;;;0.30;96.40;;;;;;4983930;28;20422;-78
2021/03/02 07:39:37;;;;;;;51.70;16.98;;;0.50;96.80;;;;;;5025103;28;20061;-78
2021/03/02 07:42:20;;;;;;;37.10;16.73;;;0.70;96.80;;;;;;5011704;28;20386;-78
2021/03/02 07:45:12;;;;;;;35.78;17.77;;;0.70;97.00;;;;;;5013522;28;21065;-78
2021/03/02 07:47:51;;;;;;;36.17;18.70;;;0.80;96.50;;;;;;4979224;28;20421;-78
2021/03/02 07:50:22;;;;;;;33.17;15.65;;;1.10;96.80;;;;;;4992641;28;20076;-77
2021/03/02 07:52:48;;;;;;;33.03;16.73;;;1.40;97.40;;;;;;5000826;28;20084;-78
2021/03/02 07:55:18;;;;;;;37.47;17.17;;;1.50;96.60;;;;;;4980779;28;20064;-79
2021/03/02 07:57:43;;;;;;;37.13;17.13;;;1.40;97.00;;;;;;4994402;28;20157;-77
2021/03/02 08:00:15;;;;;;;34.00;16.42;;;1.50;97.50;;;;;;5006398;28;20108;-78
2021/03/02 08:02:40;;;;;;;28.83;16.17;;;1.60;97.20;;;;;;5003207;28;20056;-78
2021/03/02 08:05:28;;;;;;;33.22;16.45;;;1.70;97.30;;;;;;5012325;28;20029;-78
2021/03/02 08:08:25;;;;;;;31.73;16.80;;;1.90;97.20;;;;;;5004763;28;20451;-78
2021/03/02 08:10:51;;;;;;;33.97;16.77;;;2.00;97.50;;;;;;5005281;28;20044;-78
2021/03/02 08:13:31;;;;;;;31.73;16.30;;;2.20;97.60;;;;;;4973003;28;20041;-78
2021/03/02 08:15:57;;;;;;;32.85;16.48;;;2.50;97.20;;;;;;5026275;28;20089;-78
2021/03/02 08:18:29;;;;;;;34.97;16.52;;;2.50;97.10;;;;;;5004225;28;20041;-78
2021/03/02 08:21:06;;;;;;;31.92;17.20;;;2.90;97.20;;;;;;5005310;28;20033;-78
2021/03/02 08:23:51;;;;;;;30.95;15.65;;;3.20;96.50;;;;;;5003387;28;20040;-78
2021/03/02 08:26:27;;;;;;;26.17;14.68;;;3.60;96.80;;;;;;4987444;28;20100;-78
2021/03/02 08:29:05;;;;;;;27.48;14.65;;;3.80;96.30;;;;;;5007603;28;20037;-78
2021/03/02 08:31:31;;;;;;;31.42;15.52;;;4.00;97.00;;;;;;4995727;28;20029;-78
2021/03/02 08:34:01;;;;;;;30.52;14.65;;;3.90;96.90;;;;;;4981418;28;20036;-78
2021/03/02 08:36:27;;;;;;;25.52;12.80;;;4.10;97.20;;;;;;5001527;28;20033;-78
2021/03/02 08:38:52;;;;;;;28.80;14.05;;;4.50;97.30;;;;;;5002307;28;20029;-78
2021/03/02 08:41:31;;;;;;;27.50;13.55;;;4.80;96.60;;;;;;4996501;28;20021;-78
2021/03/02 08:43:57;;;;;;;23.38;12.93;;;5.20;95.90;;;;;;5003990;28;20072;-78
2021/03/02 08:46:27;;;;;;;29.17;13.70;;;5.00;96.40;;;;;;4989181;28;20025;-78
2021/03/02 08:48:53;;;;;;;23.85;13.10;;;5.20;96.50;;;;;;5024248;28;20025;-78
2021/03/02 08:51:20;;;;;;;24.05;13.00;;;5.20;96.00;;;;;;4987811;28;20112;-78
2021/03/02 08:53:49;;;;;;;26.48;13.82;;;5.60;96.10;;;;;;5006639;28;20118;-77
2021/03/02 08:56:15;;;;;;;32.00;12.27;;;5.60;96.00;;;;;;4981503;28;20033;-77
2021/03/02 08:58:41;;;;;;;24.35;12.93;;;5.90;96.00;;;;;;5028468;28;20040;-78
2021/03/02 09:01:11;;;;;;;19.67;10.70;;;6.10;95.60;;;;;;4992512;28;20029;-77
2021/03/02 09:03:38;;;;;;;25.00;12.00;;;6.70;94.80;;;;;;5009014;28;20026;-78
2021/03/02 09:06:18;;;;;;;21.90;12.30;;;6.70;95.00;;;;;;4979949;28;20033;-79
2021/03/02 09:08:45;;;;;;;17.88;10.73;;;6.70;94.70;;;;;;5006615;28;20033;-79
2021/03/02 09:11:11;;;;;;;19.45;10.70;;;7.20;94.50;;;;;;5005274;28;20025;-79
2021/03/02 09:13:38;;;;;;;21.35;11.63;;;7.50;93.80;;;;;;5018466;28;20029;-79
2021/03/02 09:16:40;;;;;;;21.33;11.00;;;7.70;93.40;;;;;;4994925;28;20030;-79
2021/03/02 09:19:06;;;;;;;17.95;9.80;;;7.80;93.40;;;;;;4937092;28;20042;-78
2021/03/02 09:21:32;;;;;;;18.65;10.57;;;8.30;92.60;;;;;;4992040;28;20034;-78
2021/03/02 09:23:58;;;;;;;13.82;8.25;;;8.60;92.20;;;;;;5000919;28;20120;-78
2021/03/02 09:26:25;;;;;;;19.80;8.32;;;9.10;92.40;;;;;;5002673;28;20386;-78
2021/03/02 09:28:55;;;;;;;19.40;9.60;;;9.40;91.80;;;;;;4993380;28;20053;-77
2021/03/02 09:31:20;;;;;;;14.82;8.43;;;9.60;91.20;;;;;;4968257;28;20112;-77
2021/03/02 09:33:51;;;;;;;17.95;9.00;;;9.90;91.40;;;;;;4990391;28;20105;-76
2021/03/02 09:36:18;;;;;;;17.13;9.38;;;10.00;90.70;;;;;;4979809;28;20029;-77
2021/03/02 09:38:44;;;;;;;18.27;10.65;;;9.90;90.70;;;;;;4983115;28;20049;-77
2021/03/02 09:41:10;;;;;;;18.05;9.63;;;10.10;90.30;;;;;;4987867;28;20248;-77
2021/03/02 09:43:39;;;;;;;16.48;8.50;;;10.40;90.20;;;;;;5020702;28;20489;-77
2021/03/02 09:46:05;;;;;;;17.50;9.85;;;10.10;91.30;;;;;;5003562;28;20025;-76
2021/03/02 09:48:46;;;;;;;17.05;10.43;;;10.30;91.80;;;;;;4987106;28;20044;-76
2021/03/02 09:51:31;;;;;;;20.15;10.00;;;10.30;91.70;;;;;;4989736;28;20030;-76
2021/03/02 09:54:16;;;;;;;14.05;8.95;;;10.10;92.50;;;;;;5000950;28;20085;-76
2021/03/02 09:56:45;;;;;;;18.15;10.15;;;11.30;91.40;;;;;;4991772;28;20030;-76
2021/03/02 09:59:23;;;;;;;22.88;9.77;;;10.80;90.90;;;;;;4987213;28;20182;-76
2021/03/02 10:01:49;;;;;;;23.55;10.80;;;11.00;91.30;;;;;;5003075;28;20029;-76
2021/03/02 10:04:15;;;;;;;16.70;10.38;;;11.10;91.50;;;;;;4988018;28;20116;-76
2021/03/02 10:06:40;;;;;;;15.77;9.65;;;11.20;91.70;;;;;;5005381;28;20038;-76
2021/03/02 10:09:20;;;;;;;19.08;9.88;;;11.70;90.90;;;;;;4988549;28;20037;-76
2021/03/02 10:11:46;;;;;;;14.45;8.23;;;11.70;91.10;;;;;;4975683;28;20057;-76
2021/03/02 10:14:12;;;;;;;19.40;9.50;;;12.30;90.00;;;;;;4982000;28;20474;-76
2021/03/02 10:16:39;;;;;;;12.90;7.38;;;12.40;88.60;;;;;;5001339;28;20050;-76
2021/03/02 10:19:19;;;;;;;16.33;9.57;;;12.70;90.20;;;;;;4991107;28;20177;-76
2021/03/02 10:21:50;;;;;;;14.05;8.90;;;12.60;88.90;;;;;;4990815;28;20047;-76
2021/03/02 10:24:35;;;;;;;17.40;8.98;;;13.70;86.40;;;;;;4966755;28;20080;-76
2021/03/02 10:27:13;;;;;;;16.10;7.97;;;13.60;86.40;;;;;;5000603;28;20041;-76
2021/03/02 10:29:39;;;;;;;14.40;7.55;;;13.40;88.40;;;;;;5011098;28;20051;-75
2021/03/02 10:32:05;;;;;;;13.90;8.00;;;14.00;89.80;;;;;;4990330;28;20057;-75
2021/03/02 10:34:35;;;;;;;15.55;8.02;;;14.10;85.10;;;;;;4991234;28;20061;-76
2021/03/02 10:37:01;;;;;;;14.80;8.60;;;13.90;86.30;;;;;;4994801;28;20047;-75
2021/03/02 10:39:26;;;;;;;16.20;9.27;;;13.30;87.70;;;;;;4991274;28;20533;-76
2021/03/02 10:41:52;;;;;;;14.38;7.82;;;14.50;84.20;;;;;;4996130;28;20034;-76
2021/03/02 10:44:17;;;;;;;13.77;7.60;;;15.10;82.10;;;;;;4994075;28;20473;-76
2021/03/02 10:46:43;;;;;;;11.95;7.35;;;15.60;77.70;;;;;;5025842;28;20494;-76
2021/03/02 10:49:08;;;;;;;11.05;6.55;;;16.50;77.00;;;;;;4967464;28;20033;-76
2021/03/02 10:51:34;;;;;;;10.05;5.72;;;16.80;74.70;;;;;;4994829;28;20097;-76
2021/03/02 10:54:00;;;;;;;10.93;5.57;;;17.20;71.70;;;;;;4985047;28;20058;-76
2021/03/02 10:56:26;;;;;;;10.98;5.20;;;18.10;68.50;;;;;;4989121;28;20485;-76
2021/03/02 10:58:51;;;;;;;8.70;5.03;;;18.60;60.20;;;;;;5009163;28;20543;-76
2021/03/02 11:01:17;;;;;;;9.23;4.88;;;18.20;59.70;;;;;;4966207;28;20029;-76
2021/03/02 11:03:43;;;;;;;11.38;5.57;;;18.00;61.80;;;;;;5007799;28;20089;-76
2021/03/02 11:06:13;;;;;;;7.60;4.93;;;18.80;57.80;;;;;;4989175;28;20393;-76
2021/03/02 11:08:39;;;;;;;8.52;5.38;;;18.40;58.20;;;;;;5006951;28;20466;-76
2021/03/02 11:11:04;;;;;;;8.90;4.63;;;17.80;58.90;;;;;;4990540;28;20033;-77
2021/03/02 11:13:30;;;;;;;10.63;5.93;;;17.50;58.70;;;;;;4989372;28;20037;-77
2021/03/02 11:15:55;;;;;;;8.38;5.30;;;17.30;59.20;;;;;;4991934;28;20386;-77
2021/03/02 11:18:21;;;;;;;8.30;5.03;;;17.70;59.00;;;;;;4967752;28;20034;-77
2021/03/02 11:20:46;;;;;;;7.28;4.40;;;18.10;57.60;;;;;;5028036;28;20121;-76
2021/03/02 11:23:12;;;;;;;10.40;5.43;;;18.90;53.20;;;;;;4968928;28;20044;-77
2021/03/02 11:25:39;;;;;;;7.93;4.80;;;18.80;54.40;;;;;;4981854;28;20064;-77
2021/03/02 11:28:05;;;;;;;7.13;4.47;;;19.50;53.80;;;;;;5006415;28;20037;-77
2021/03/02 11:30:31;;;;;;;8.77;4.97;;;19.60;53.30;;;;;;4996199;28;20445;-77
2021/03/02 11:32:56;;;;;;;9.63;4.80;;;19.40;52.70;;;;;;4991811;28;20040;-77
2021/03/02 11:35:22;;;;;;;6.82;4.32;;;18.70;54.30;;;;;;4977527;28;20061;-77
2021/03/02 11:37:47;;;;;;;8.48;4.97;;;19.60;51.70;;;;;;4994639;28;20389;-77
2021/03/02 11:40:14;;;;;;;8.88;5.35;;;19.60;51.20;;;;;;4968582;28;20033;-77
2021/03/02 11:42:40;;;;;;;12.10;5.68;;;19.80;51.20;;;;;;5007406;28;20042;-77
2021/03/02 11:45:06;;;;;;;9.65;4.65;;;19.40;51.60;;;;;;5005988;28;20048;-77
2021/03/02 11:47:32;;;;;;;9.75;4.88;;;19.70;53.20;;;;;;5000325;28;20034;-77
2021/03/02 11:49:58;;;;;;;8.50;4.63;;;19.90;51.40;;;;;;4984740;28;20505;-76
2021/03/02 11:52:24;;;;;;;7.80;4.70;;;20.10;51.00;;;;;;4987799;28;20045;-76
2021/03/02 11:54:49;;;;;;;5.65;4.13;;;19.70;49.70;;;;;;4994105;28;20116;-76
2021/03/02 11:57:18;;;;;;;6.38;4.47;;;19.40;51.50;;;;;;4992624;28;20072;-77
2021/03/02 11:59:44;;;;;;;4.97;4.07;;;19.90;49.10;;;;;;5003757;28;20033;-77
2021/03/02 12:02:10;;;;;;;6.28;4.25;;;20.40;49.80;;;;;;4966910;28;20034;-77
2021/03/02 12:04:38;;;;;;;8.98;4.72;;;20.70;48.40;;;;;;5003661;28;20398;-77
2021/03/02 12:07:04;;;;;;;6.28;3.85;;;20.80;45.30;;;;;;4995118;28;20080;-76
2021/03/02 12:09:29;;;;;;;7.18;4.18;;;20.40;46.30;;;;;;5004695;28;20085;-78
2021/03/02 12:11:55;;;;;;;9.40;5.22;;;20.30;46.70;;;;;;4994247;28;20036;-76
2021/03/02 12:14:20;;;;;;;7.70;4.55;;;20.90;46.60;;;;;;4978425;28;20518;-77
2021/03/02 12:16:46;;;;;;;10.15;5.53;;;21.20;46.40;;;;;;5004839;28;20045;-76
2021/03/02 12:19:12;;;;;;;10.38;4.47;;;20.70;44.10;;;;;;5003738;28;20038;-76
2021/03/02 12:21:37;;;;;;;5.60;3.70;;;20.00;46.20;;;;;;5002644;28;20037;-77
2021/03/02 12:24:03;;;;;;;5.82;4.07;;;20.70;46.00;;;;;;4981637;28;20053;-77
2021/03/02 12:26:28;;;;;;;8.43;4.45;;;20.90;46.70;;;;;;4987560;28;20068;-77
2021/03/02 12:28:54;;;;;;;7.65;4.60;;;20.70;44.20;;;;;;5004668;28;20025;-77
2021/03/02 12:31:19;;;;;;;9.70;5.75;;;20.60;45.30;;;;;;4965102;28;20401;-77
2021/03/02 12:33:45;;;;;;;7.82;5.05;;;20.70;45.70;;;;;;5005726;28;20034;-78
2021/03/02 12:36:10;;;;;;;8.43;4.80;;;21.20;45.80;;;;;;4988437;28;20393;-77